Wappingers Falls, New York
Current Conditions -  °F | °C
As of 8:53 AM on Friday 19 Dec 2014 (Local Time) from KPOU Reporting Station
Overcast Overcast  
Wind Chill: 27°   Ceiling: 4000
Heat Index: 34°   Visibility: 10mi
Dew Point: 19°   Wind: 9mph
Humidity: 54%   Direction: 300°WNW
Pressure: 30.04"   Gusts: NA
Location:  41.6°N, 73.91°W
Report Text: KPOU 191353Z 30008KT 10SM OVC040 01/M07 A3004 RMK AO2 SLP170 T00111072
Loading
Personal Weather Stations






























Interactive Weather Map New forecast layout! Learn more

10-Day Weather Forecast

Advertisements
Track Severe Weather on mobile